Time;durP1;ratioP1;P1;durP2;ratioP2;P2;SDS_P1;SDS_P2;PMS_P1;PMS_P2;Temp;Humidity;BMP_temperature;BMP_pressure;BME280_temperature;BME280_humidity;BME280_pressure;Samples;Min_cycle;Max_cycle;Signal;HPM_P1;HPM_P2
2022/08/06 00:03:00;;;;;;;6.20;5.50;;;;;;;18.48;74.14;97181.33;110017;1244;69228;-74
2022/08/06 00:05:30;;;;;;;6.00;5.30;;;;;;;18.47;74.60;97181.21;110268;1244;69880;-73
2022/08/06 00:08:07;;;;;;;5.60;5.00;;;;;;;18.46;71.58;97177.79;110315;1244;59718;-73
2022/08/06 00:10:37;;;;;;;7.00;5.60;;;;;;;18.46;72.97;97174.70;110200;1245;59650;-73
2022/08/06 00:13:10;;;;;;;6.30;5.50;;;;;;;18.43;75.06;97176.10;110143;1247;71270;-75
2022/08/06 00:15:42;;;;;;;7.60;6.40;;;;;;;18.40;75.77;97173.92;110150;1246;69188;-74
2022/08/06 00:18:32;;;;;;;6.70;5.70;;;;;;;18.34;75.25;97171.05;110113;1245;68908;-73
2022/08/06 00:21:02;;;;;;;5.90;5.30;;;;;;;18.27;74.32;97168.20;110211;1247;59739;-73
2022/08/06 00:23:51;;;;;;;6.50;4.90;;;;;;;18.25;72.61;97168.12;110024;1247;59784;-73
2022/08/06 00:26:24;;;;;;;6.30;5.10;;;;;;;18.25;73.49;97170.61;110130;1247;71084;-73
2022/08/06 00:28:56;;;;;;;8.60;6.30;;;;;;;18.25;74.69;97172.30;110067;1247;68432;-73
2022/08/06 00:31:26;;;;;;;;;;;;;;;18.24;75.50;97176.83;110125;1246;69565;-73
2022/08/06 00:34:02;;;;;;;7.10;5.70;;;;;;;18.22;76.62;97171.77;110142;1247;59700;-71
2022/08/06 00:36:32;;;;;;;8.00;6.10;;;;;;;18.22;75.74;97175.11;110090;1247;59703;-72
2022/08/06 00:39:05;;;;;;;6.80;6.10;;;;;;;18.21;74.85;97173.69;110225;1247;71682;-73
2022/08/06 00:41:38;;;;;;;6.60;5.90;;;;;;;18.20;76.79;97170.44;110127;1247;69386;-76
2022/08/06 00:44:14;;;;;;;6.60;5.70;;;;;;;18.19;77.37;97172.63;110240;1244;70156;-75
2022/08/06 00:46:59;;;;;;;6.40;5.70;;;;;;;18.17;76.77;97172.30;110194;1247;59752;-74
2022/08/06 00:49:33;;;;;;;7.10;6.10;;;;;;;18.17;76.66;97174.45;110567;1244;59635;-74
2022/08/06 00:52:19;;;;;;;7.00;6.30;;;;;;;18.16;76.63;97174.73;110373;1247;70711;-74
2022/08/06 00:54:48;;;;;;;8.00;7.20;;;;;;;18.16;77.53;97176.03;110337;1247;68611;-75
2022/08/06 00:57:18;;;;;;;;;;;;;;;18.14;76.06;97179.54;110315;1247;69422;-75
2022/08/06 00:59:51;;;;;;;6.00;5.40;;;;;;;18.12;73.81;97179.60;110385;1247;59683;-75
2022/08/06 01:02:21;;;;;;;6.50;5.50;;;;;;;18.10;73.23;97178.27;110168;1247;59676;-74
2022/08/06 01:04:54;;;;;;;6.00;5.40;;;;;;;18.08;74.69;97177.40;110138;1247;72303;-75
2022/08/06 01:07:44;;;;;;;5.50;5.00;;;;;;;18.06;75.19;97175.83;110224;1247;69357;-75
2022/08/06 01:10:22;;;;;;;7.70;5.70;;;;;;;18.04;76.07;97172.82;110282;1247;69483;-73
2022/08/06 01:13:10;;;;;;;6.10;5.50;;;;;;;18.03;76.40;97175.09;110207;1247;59747;-74
2022/08/06 01:16:09;;;;;;;7.10;5.40;;;;;;;18.02;76.10;97176.74;110221;1248;59681;-75
2022/08/06 01:19:23;;;;;;;7.50;6.40;;;;;;;18.02;78.17;97178.86;108710;1247;1941917;-76
2022/08/06 01:22:42;;;;;;;6.60;5.90;;;;;;;18.01;78.08;97177.16;110337;1247;68428;-73
2022/08/06 01:25:40;;;;;;;7.20;6.00;;;;;;;18.00;77.37;97176.25;110039;1247;69824;-75
2022/08/06 01:28:33;;;;;;;7.30;6.00;;;;;;;18.00;77.37;97172.88;110051;1247;59733;-74
2022/08/06 01:31:14;;;;;;;7.30;6.20;;;;;;;18.01;78.23;97172.94;110217;1247;59755;-73
2022/08/06 01:34:06;;;;;;;6.20;5.60;;;;;;;18.01;76.17;97171.20;110133;1246;70782;-73
2022/08/06 01:37:16;;;;;;;5.70;5.10;;;;;;;18.01;74.88;97170.00;110039;1246;69348;-73
2022/08/06 01:39:50;;;;;;;7.10;6.30;;;;;;;18.00;76.32;97167.49;110078;1247;68480;-72
2022/08/06 01:42:32;;;;;;;7.80;6.40;;;;;;;17.99;78.05;97168.68;110128;1248;59768;-73
2022/08/06 01:45:11;;;;;;;9.80;8.80;;;;;;;17.97;78.11;97170.48;110166;1247;59688;-73
2022/08/06 01:47:45;;;;;;;9.30;8.00;;;;;;;17.87;79.18;97169.79;109983;1247;71605;-72
2022/08/06 01:50:29;;;;;;;8.10;7.10;;;;;;;17.76;77.64;97169.47;110179;1245;68658;-74
2022/08/06 01:53:03;;;;;;;7.90;7.10;;;;;;;17.64;79.22;97171.79;110326;1247;68647;-72
2022/08/06 01:55:48;;;;;;;9.70;7.40;;;;;;;17.55;78.68;97171.53;110193;1247;59744;-75
2022/08/06 01:58:31;;;;;;;9.40;8.20;;;;;;;17.46;80.55;97167.91;110137;1248;59631;-76
2022/08/06 02:01:06;;;;;;;9.40;7.80;;;;;;;17.42;81.05;97166.38;110166;1247;70727;-75
2022/08/06 02:03:47;;;;;;;7.60;6.80;;;;;;;17.39;80.88;97164.80;110063;1250;69634;-75
2022/08/06 02:06:56;;;;;;;8.70;7.60;;;;;;;17.35;82.03;97164.41;110228;1247;68709;-75
2022/08/06 02:09:28;;;;;;;7.90;7.10;;;;;;;17.31;81.49;97163.76;110212;1248;59664;-74
2022/08/06 02:12:17;;;;;;;8.20;7.30;;;;;;;17.28;80.84;97164.31;110015;1249;59631;-75
2022/08/06 02:15:04;;;;;;;9.10;8.00;;;;;;;17.23;82.46;97161.42;110103;1248;70715;-72
2022/08/06 02:17:58;;;;;;;8.00;7.00;;;;;;;17.19;81.01;97160.98;110108;1248;69402;-74
2022/08/06 02:20:45;;;;;;;8.00;6.50;;;;;;;17.14;81.26;97164.89;110202;1246;68607;-75
2022/08/06 02:23:25;;;;;;;8.30;6.30;;;;;;;17.09;79.40;97162.35;110364;1246;59641;-74
2022/08/06 02:26:04;;;;;;;7.90;7.10;;;;;;;17.04;81.85;97161.45;110266;1247;59729;-74
2022/08/06 02:28:36;;;;;;;7.40;6.70;;;;;;;16.99;82.62;97166.20;110213;1247;71571;-73
2022/08/06 02:31:07;;;;;;;8.90;7.40;;;;;;;16.96;82.74;97163.16;110235;1248;69366;-75
2022/08/06 02:33:36;;;;;;;8.70;7.80;;;;;;;16.94;83.84;97163.85;110177;1247;69574;-74
2022/08/06 02:36:36;;;;;;;9.40;7.20;;;;;;;16.92;81.45;97166.73;110269;1247;59687;-73
2022/08/06 02:39:26;;;;;;;7.70;6.80;;;;;;;16.89;83.17;97168.63;110215;1247;59653;-73
2022/08/06 02:42:29;;;;;;;7.90;7.10;;;;;;;16.87;82.35;97168.04;110276;1248;70761;-73
2022/08/06 02:45:09;;;;;;;11.80;10.30;;;;;;;16.86;79.76;97170.77;110274;1247;69378;-71
2022/08/06 02:47:51;;;;;;;12.60;8.70;;;;;;;16.81;81.15;97168.29;110202;1247;69413;-72
2022/08/06 02:50:41;;;;;;;8.80;7.90;;;;;;;16.77;80.59;97173.05;110344;1247;59836;-74
2022/08/06 02:53:22;;;;;;;8.60;7.10;;;;;;;16.73;79.85;97170.59;110424;1247;59644;-73
2022/08/06 02:55:57;;;;;;;10.70;8.50;;;;;;;16.71;83.67;97170.64;110378;1247;71142;-74
2022/08/06 02:58:35;;;;;;;11.00;8.50;;;;;;;16.70;85.42;97173.01;110441;1247;69346;-75
2022/08/06 03:01:12;;;;;;;9.10;8.10;;;;;;;16.71;85.56;97170.27;110257;1246;68918;-75
2022/08/06 03:03:52;;;;;;;9.20;8.20;;;;;;;16.70;83.07;97172.48;110487;1247;59694;-72
2022/08/06 03:06:32;;;;;;;9.40;7.50;;;;;;;16.71;83.17;97172.93;110295;1247;59691;-73
2022/08/06 03:09:06;;;;;;;10.00;7.90;;;;;;;16.71;84.43;97173.30;110261;1247;71508;-73
2022/08/06 03:11:40;;;;;;;9.90;8.60;;;;;;;16.73;86.59;97180.11;110395;1247;69404;-73
2022/08/06 03:14:12;;;;;;;9.40;8.40;;;;;;;16.77;86.59;97180.45;110284;1246;68866;-73
2022/08/06 03:17:02;;;;;;;9.90;8.20;;;;;;;16.80;86.62;97183.79;110476;1247;59761;-73
2022/08/06 03:19:32;;;;;;;10.00;8.80;;;;;;;16.84;86.19;97184.73;110333;1247;59671;-73
2022/08/06 03:22:23;;;;;;;10.00;8.60;;;;;;;16.89;86.21;97188.95;110302;1246;70728;-73
2022/08/06 03:25:14;;;;;;;10.00;8.90;;;;;;;16.95;86.19;97194.23;110313;1247;69455;-74
2022/08/06 03:27:46;;;;;;;11.40;9.40;;;;;;;17.00;85.62;97192.45;110225;1247;69638;-70
2022/08/06 03:30:18;;;;;;;9.20;7.70;;;;;;;17.02;84.88;97195.50;110368;1247;59767;-73
2022/08/06 03:33:08;;;;;;;8.50;7.50;;;;;;;17.00;84.83;97193.63;110401;1246;59695;-73
2022/08/06 03:36:00;;;;;;;9.30;8.40;;;;;;;17.02;84.64;97195.70;110437;1247;71099;-73
2022/08/06 03:38:38;;;;;;;8.80;7.80;;;;;;;17.03;85.16;97198.23;110180;1247;68831;-73
2022/08/06 03:41:10;;;;;;;9.10;8.10;;;;;;;17.05;84.65;97198.20;110214;1245;69365;-73
2022/08/06 03:43:45;;;;;;;10.90;9.10;;;;;;;17.09;85.61;97201.67;110482;1247;59692;-73
2022/08/06 03:46:46;;;;;;;9.30;8.30;;;;;;;17.14;85.54;97202.33;110434;1247;59673;-74
2022/08/06 03:49:25;;;;;;;10.90;8.90;;;;;;;17.20;85.15;97201.06;110202;1247;71579;-74
2022/08/06 03:52:15;;;;;;;9.60;8.60;;;;;;;17.26;84.79;97207.84;110230;1247;70072;-75
2022/08/06 03:54:50;;;;;;;10.30;9.30;;;;;;;17.30;84.69;97204.75;110213;1247;68018;-72
2022/08/06 03:57:25;;;;;;;10.20;8.50;;;;;;;17.34;84.44;97204.73;110478;1247;59666;-72
2022/08/06 04:00:00;;;;;;;10.10;8.50;;;;;;;17.38;83.77;97206.79;110359;1247;59683;-73
2022/08/06 04:02:47;;;;;;;9.80;8.50;;;;;;;17.35;83.12;97213.09;110437;1247;71558;-73
2022/08/06 04:05:21;;;;;;;9.60;8.60;;;;;;;17.37;83.07;97214.03;110354;1247;69546;-75
2022/08/06 04:07:54;;;;;;;9.70;8.00;;;;;;;17.41;82.60;97216.38;110382;1246;68426;-74
2022/08/06 04:10:29;;;;;;;8.70;7.80;;;;;;;17.45;81.95;97220.29;110353;1247;59693;-74
2022/08/06 04:13:05;;;;;;;8.90;7.40;;;;;;;17.52;81.52;97226.66;110444;1247;59751;-74
2022/08/06 04:15:56;;;;;;;9.20;7.70;;;;;;;17.61;81.33;97228.98;110206;1246;71882;-74
2022/08/06 04:18:29;;;;;;;8.90;7.50;;;;;;;17.72;81.46;97228.45;110415;1247;69300;-75
2022/08/06 04:21:02;;;;;;;9.50;7.20;;;;;;;17.82;81.01;97226.09;110414;1247;69444;-73
2022/08/06 04:23:52;;;;;;;9.70;7.50;;;;;;;17.97;80.24;97224.34;110289;1247;59697;-74
2022/08/06 04:26:24;;;;;;;8.70;7.00;;;;;;;18.14;79.93;97226.13;110316;1247;59675;-74
2022/08/06 04:28:56;;;;;;;8.70;7.80;;;;;;;18.41;80.14;97230.45;110356;1247;71639;-77
2022/08/06 04:31:29;;;;;;;9.00;7.00;;;;;;;18.68;79.53;97229.48;110263;1247;69804;-75
2022/08/06 04:34:24;;;;;;;8.90;8.00;;;;;;;18.91;78.32;97230.27;110085;1247;69502;-73
2022/08/06 04:36:59;;;;;;;10.20;8.80;;;;;;;19.07;77.49;97228.55;110326;1246;59584;-76
2022/08/06 04:39:30;;;;;;;8.50;7.50;;;;;;;19.18;77.42;97228.40;110109;1248;59698;-77
2022/08/06 04:42:07;;;;;;;10.70;8.50;;;;;;;19.29;76.93;97225.89;110499;1247;71507;-78
2022/08/06 04:44:38;;;;;;;9.60;8.50;;;;;;;19.36;76.99;97229.78;110575;1247;68562;-76
2022/08/06 04:47:12;;;;;;;10.00;9.00;;;;;;;19.42;76.51;97228.15;110242;1247;69668;-76
2022/08/06 04:49:42;;;;;;;10.50;9.50;;;;;;;19.53;76.08;97229.64;110289;1247;59683;-79
2022/08/06 04:52:32;;;;;;;9.90;8.90;;;;;;;19.64;75.65;97232.28;110238;1247;59664;-77
2022/08/06 04:55:20;;;;;;;11.80;10.60;;;;;;;19.77;75.70;97233.23;110476;1247;71673;-78
2022/08/06 04:57:53;;;;;;;9.90;8.90;;;;;;;19.92;74.62;97236.71;110573;1247;68924;-78
2022/08/06 05:00:32;;;;;;;9.60;8.60;;;;;;;20.12;74.63;97233.58;110431;1247;69473;-76
2022/08/06 05:03:21;;;;;;;11.70;10.40;;;;;;;20.40;73.65;97230.34;110485;1245;59808;-79
2022/08/06 05:06:23;;;;;;;12.20;10.20;;;;;;;20.73;72.68;97232.67;110376;1247;59622;-76
2022/08/06 05:08:58;;;;;;;11.00;9.90;;;;;;;21.08;71.04;97234.39;110342;1247;70909;-76
2022/08/06 05:11:38;;;;;;;10.20;9.20;;;;;;;21.44;70.10;97236.89;110379;1246;68934;-77
2022/08/06 05:14:32;;;;;;;;;;;;;;;21.85;69.17;97232.08;110471;1247;69231;-76
2022/08/06 05:17:04;;;;;;;7.60;6.80;;;;;;;22.25;68.86;97233.65;110337;1247;59651;-78
2022/08/06 05:19:44;;;;;;;8.60;7.40;;;;;;;22.66;66.40;97230.11;110281;1245;59749;-77
2022/08/06 05:22:18;;;;;;;9.40;8.40;;;;;;;23.06;65.62;97231.23;110391;1247;71944;-78
2022/08/06 05:25:07;;;;;;;7.20;6.50;;;;;;;23.57;64.51;97232.61;110429;1247;68594;-76
2022/08/06 05:27:49;;;;;;;9.50;7.20;;;;;;;23.94;60.29;97229.20;110406;1247;68749;-77
2022/08/06 05:30:47;;;;;;;7.80;7.00;;;;;;;24.29;60.98;97222.81;110388;1247;59693;-78
2022/08/06 05:33:42;;;;;;;7.90;6.70;;;;;;;24.60;59.46;97226.61;110436;1247;59696;-79
2022/08/06 05:36:13;;;;;;;9.10;8.00;;;;;;;25.09;58.99;97230.82;110415;1247;71544;-77
2022/08/06 05:38:47;;;;;;;9.20;7.30;;;;;;;25.35;57.32;97222.80;110511;1247;69419;-77
2022/08/06 05:41:30;;;;;;;7.80;7.10;;;;;;;25.35;56.44;97226.91;110300;1247;69478;-78
2022/08/06 05:44:05;;;;;;;7.90;7.20;;;;;;;25.54;56.33;97223.77;110398;1246;59682;-77
2022/08/06 05:46:45;;;;;;;8.30;7.30;;;;;;;25.50;55.45;97226.96;110407;1247;59715;-77
2022/08/06 05:49:21;;;;;;;8.20;7.40;;;;;;;25.72;55.09;97223.39;110524;1246;71739;-76
2022/08/06 05:52:23;;;;;;;7.60;6.90;;;;;;;25.87;54.46;97221.98;110509;1247;69523;-76
2022/08/06 05:55:15;;;;;;;10.30;9.30;;;;;;;26.27;54.30;97223.17;110466;1247;68677;-78
2022/08/06 05:57:56;;;;;;;8.70;7.80;;;;;;;26.61;52.98;97221.95;110465;1246;59745;-76
2022/08/06 06:00:33;;;;;;;7.90;7.20;;;;;;;27.14;51.95;97220.81;110405;1246;59696;-78
2022/08/06 06:03:17;;;;;;;8.30;7.50;;;;;;;27.43;48.88;97216.40;110424;1245;71430;-79
2022/08/06 06:05:56;;;;;;;;;;;;;;;27.69;50.16;97219.54;110618;1246;69655;-79
2022/08/06 06:08:45;;;;;;;8.00;7.10;;;;;;;27.99;49.45;97217.78;110635;1247;68745;-77
2022/08/06 06:11:27;;;;;;;6.90;6.30;;;;;;;28.09;48.42;97218.92;110340;1246;59713;-77
2022/08/06 06:14:35;;;;;;;7.30;6.60;;;;;;;27.94;47.65;97218.41;110529;1247;59621;-76
2022/08/06 06:17:20;;;;;;;8.00;7.30;;;;;;;27.94;48.39;97218.95;110435;1245;71370;-77
2022/08/06 06:20:16;;;;;;;7.90;7.20;;;;;;;28.05;47.20;97217.40;110400;1247;68243;-76
2022/08/06 06:23:19;;;;;;;7.70;7.00;;;;;;;28.28;47.64;97216.74;110269;1246;69850;-77
2022/08/06 06:25:49;;;;;;;8.10;7.30;;;;;;;28.40;46.33;97209.19;110475;1247;59772;-77
2022/08/06 06:28:28;;;;;;;7.50;6.40;;;;;;;28.55;46.40;97203.32;110424;1246;59682;-78
2022/08/06 06:31:13;;;;;;;8.40;7.10;;;;;;;28.80;45.57;97206.30;110573;1246;71998;-77
2022/08/06 06:34:12;;;;;;;6.80;6.20;;;;;;;29.24;46.10;97208.41;110548;1246;69059;-74
2022/08/06 06:36:50;;;;;;;;;;;;;;;29.65;45.04;97206.09;110494;1247;69241;-77
2022/08/06 06:39:38;;;;;;;7.20;5.80;;;;;;;29.35;43.84;97205.15;110341;1247;59719;-77
2022/08/06 06:42:20;;;;;;;9.70;7.30;;;;;;;29.55;43.24;97206.20;110451;1246;59762;-78
2022/08/06 06:45:23;;;;;;;;;;;;;;;28.99;43.97;97205.09;110423;1247;71365;-78
2022/08/06 06:48:33;;;;;;;7.00;6.30;;;;;;;28.91;44.73;97202.77;110447;1246;69178;-77
2022/08/06 06:51:08;;;;;;;6.80;6.20;;;;;;;29.33;44.50;97203.82;110340;1245;68860;-76
2022/08/06 06:53:56;;;;;;;7.00;6.40;;;;;;;29.76;42.66;97201.27;110233;1245;59719;-76
2022/08/06 06:56:41;;;;;;;7.70;6.10;;;;;;;29.97;43.07;97197.63;110230;1247;59706;-79
2022/08/06 06:59:21;;;;;;;6.10;5.60;;;;;;;30.54;42.16;97198.14;110240;1247;72244;-78
2022/08/06 07:02:21;;;;;;;7.00;6.40;;;;;;;30.97;40.65;97201.14;110293;1247;68653;-77
2022/08/06 07:04:56;;;;;;;6.30;5.70;;;;;;;30.76;39.65;97197.22;110338;1246;69403;-78
2022/08/06 07:07:29;;;;;;;6.10;5.60;;;;;;;31.00;40.06;97202.73;110288;1246;59748;-78
2022/08/06 07:10:00;;;;;;;6.00;5.50;;;;;;;31.33;40.07;97201.55;110341;1245;59693;-79
2022/08/06 07:12:32;;;;;;;6.70;6.00;;;;;;;31.68;39.03;97200.49;110423;1246;72109;-78
2022/08/06 07:15:06;;;;;;;6.70;6.00;;;;;;;31.83;38.78;97196.60;110261;1246;68446;-78
2022/08/06 07:17:48;;;;;;;7.30;6.70;;;;;;;32.05;36.92;97195.02;110403;1247;68949;-78
2022/08/06 07:20:26;;;;;;;7.60;6.20;;;;;;;31.81;36.82;97190.84;110506;1246;60105;-79
2022/08/06 07:23:01;;;;;;;7.20;6.50;;;;;;;31.31;38.28;97192.10;110335;1244;59760;-78
2022/08/06 07:25:53;;;;;;;6.60;6.00;;;;;;;30.83;38.52;97188.53;110245;1247;71612;-79
2022/08/06 07:28:27;;;;;;;6.50;5.50;;;;;;;31.25;38.28;97185.67;110195;1247;68889;-79
2022/08/06 07:30:59;;;;;;;7.20;6.50;;;;;;;31.57;37.19;97183.23;110288;1247;69844;-78
2022/08/06 07:33:40;;;;;;;6.90;6.20;;;;;;;31.93;36.57;97179.86;110287;1247;59748;-76
2022/08/06 07:36:32;;;;;;;6.80;6.20;;;;;;;31.96;36.10;97178.91;110260;1247;59700;-77
2022/08/06 07:39:10;;;;;;;6.20;5.60;;;;;;;32.29;35.32;97183.09;110666;1246;70991;-77
2022/08/06 07:41:47;;;;;;;7.10;6.40;;;;;;;32.54;34.12;97181.19;111009;1247;68428;-76
2022/08/06 07:44:38;;;;;;;7.00;6.40;;;;;;;32.67;34.50;97184.27;110343;1247;69625;-77
2022/08/06 07:47:37;;;;;;;7.60;6.70;;;;;;;32.57;34.25;97183.52;110264;1247;59679;-77
2022/08/06 07:50:23;;;;;;;;;;;;;;;32.45;35.32;97184.34;110264;1247;59752;-77
2022/08/06 07:52:55;;;;;;;6.80;5.90;;;;;;;32.62;34.27;97178.98;110457;1247;71514;-78
2022/08/06 07:55:27;;;;;;;6.60;6.00;;;;;;;32.93;33.19;97188.91;110297;1247;69153;-76
2022/08/06 07:58:10;;;;;;;7.80;6.80;;;;;;;33.26;32.86;97183.73;110249;1247;68632;-76
2022/08/06 08:00:44;;;;;;;6.70;6.10;;;;;;;33.07;32.78;97184.88;110288;1247;59748;-78
2022/08/06 08:06:27;;;;;;;6.70;6.10;;;;;;;33.48;33.07;97180.02;110230;1247;71602;-75
2022/08/06 08:09:06;;;;;;;7.60;6.30;;;;;;;33.82;32.15;97182.64;110204;1247;68678;-77
2022/08/06 08:11:41;;;;;;;6.40;5.20;;;;;;;33.89;31.60;97184.69;110339;1247;69269;-76
2022/08/06 08:14:30;;;;;;;7.00;6.40;;;;;;;34.00;31.09;97187.02;110244;1247;59700;-77
2022/08/06 08:17:00;;;;;;;7.30;6.60;;;;;;;33.56;31.23;97186.39;110186;1248;59717;-76
2022/08/06 08:19:33;;;;;;;6.20;5.70;;;;;;;33.56;31.48;97185.64;110117;1247;71577;-77
2022/08/06 08:22:06;;;;;;;7.20;6.20;;;;;;;33.46;31.54;97187.08;110126;1248;69174;-78
2022/08/06 08:24:36;;;;;;;5.60;5.10;;;;;;;33.72;31.11;97187.55;110151;1247;69256;-77
2022/08/06 08:27:09;;;;;;;6.50;5.70;;;;;;;34.00;31.17;97188.69;110115;1247;59702;-76
2022/08/06 08:29:51;;;;;;;5.90;5.40;;;;;;;34.31;30.82;97185.02;110120;1248;59643;-75
2022/08/06 08:32:27;;;;;;;6.00;5.40;;;;;;;34.44;30.24;97182.01;110022;1247;70578;-78
2022/08/06 08:34:56;;;;;;;6.00;5.40;;;;;;;34.59;31.13;97186.48;110031;1247;68532;-76
2022/08/06 08:37:25;;;;;;;5.80;5.20;;;;;;;34.48;30.88;97185.44;110173;1247;69229;-78
2022/08/06 08:40:00;;;;;;;5.40;4.90;;;;;;;33.83;30.39;97190.15;110170;1247;60162;-78
2022/08/06 08:42:36;;;;;;;6.30;5.70;;;;;;;34.37;29.87;97185.40;110359;1247;59687;-75
2022/08/06 08:45:06;;;;;;;7.10;6.30;;;;;;;33.51;31.04;97186.89;110215;1247;71544;-77
2022/08/06 08:47:45;;;;;;;6.60;6.00;;;;;;;33.36;31.84;97183.20;110201;1247;68523;-76
2022/08/06 08:50:29;;;;;;;6.00;5.40;;;;;;;33.82;30.76;97182.81;110162;1248;67464;-77
2022/08/06 08:53:03;;;;;;;7.10;6.50;;;;;;;34.40;31.03;97177.83;110133;1247;59777;-75
2022/08/06 08:55:32;;;;;;;6.70;5.50;;;;;;;34.71;29.89;97173.13;110153;1245;59694;-76
2022/08/06 08:58:22;;;;;;;5.50;5.10;;;;;;;35.10;28.99;97174.20;110129;1247;71810;-76
2022/08/06 09:01:11;;;;;;;6.70;6.00;;;;;;;34.91;28.99;97174.03;110137;1247;69401;-75
2022/08/06 09:04:03;;;;;;;6.00;5.40;;;;;;;34.27;30.02;97178.45;110147;1247;68698;-78
2022/08/06 09:06:37;;;;;;;5.00;4.60;;;;;;;34.27;29.72;97172.81;110324;1247;59640;-77
2022/08/06 09:09:07;;;;;;;6.30;5.80;;;;;;;34.63;29.79;97174.55;110363;1245;59697;-77
2022/08/06 09:11:44;;;;;;;5.50;5.00;;;;;;;35.10;29.36;97170.16;110341;1247;71495;-78
2022/08/06 09:14:35;;;;;;;10.10;9.10;;;;;;;35.77;28.28;97174.48;110674;1246;69374;-75
2022/08/06 09:17:06;;;;;;;5.50;5.00;;;;;;;35.43;27.64;97171.00;110457;1245;68463;-76
2022/08/06 09:19:42;;;;;;;5.90;4.90;;;;;;;35.88;27.87;97171.40;110242;1247;59674;-78
2022/08/06 09:22:11;;;;;;;9.90;9.10;;;;;;;36.01;27.93;97172.63;110193;1247;59732;-77
2022/08/06 09:24:39;;;;;;;6.40;5.80;;;;;;;36.90;27.69;97167.55;109865;1248;70659;-75
2022/08/06 09:27:16;;;;;;;5.60;5.10;;;;;;;37.22;27.04;97172.75;110113;1247;69585;-78
2022/08/06 09:30:07;;;;;;;5.10;4.60;;;;;;;37.86;25.49;97171.11;110132;1247;69395;-76
2022/08/06 09:32:56;;;;;;;5.50;5.00;;;;;;;37.91;24.84;97173.10;110093;1248;59728;-76
2022/08/06 09:36:00;;;;;;;5.20;4.50;;;;;;;38.10;24.82;97170.18;110224;1247;59708;-77
2022/08/06 09:38:29;;;;;;;6.00;5.50;;;;;;;38.36;24.20;97165.17;110092;1247;70588;-75
2022/08/06 09:41:08;;;;;;;6.70;5.70;;;;;;;37.98;25.37;97166.14;110146;1247;69838;-76
2022/08/06 09:43:48;;;;;;;5.60;5.10;;;;;;;38.19;24.68;97166.88;110305;1246;68451;-74
2022/08/06 09:46:42;;;;;;;5.90;5.40;;;;;;;38.34;24.07;97164.05;110490;1245;59750;-76
2022/08/06 09:49:17;;;;;;;5.80;5.20;;;;;;;38.49;23.87;97156.95;110146;1246;59716;-73
2022/08/06 09:52:12;;;;;;;6.40;5.80;;;;;;;37.95;24.36;97158.20;110188;1247;71548;-76
2022/08/06 09:54:41;;;;;;;5.30;4.90;;;;;;;38.35;24.35;97152.88;110205;1247;69357;-78
2022/08/06 09:57:10;;;;;;;4.80;4.40;;;;;;;38.74;23.86;97151.96;110275;1247;69515;-75
2022/08/06 09:59:47;;;;;;;5.60;5.10;;;;;;;38.96;23.60;97150.11;110267;1247;59723;-75
2022/08/06 10:02:20;;;;;;;5.90;5.30;;;;;;;39.14;23.04;97147.15;110277;1247;59669;-76
2022/08/06 10:04:51;;;;;;;6.30;5.70;;;;;;;39.42;24.19;97149.61;110240;1247;72018;-77
2022/08/06 10:07:30;;;;;;;5.70;5.20;;;;;;;39.48;23.93;97149.52;110057;1247;68443;-77
2022/08/06 10:10:08;;;;;;;5.80;5.20;;;;;;;39.14;23.76;97145.02;110233;1247;68623;-77
2022/08/06 10:12:36;;;;;;;8.90;8.20;;;;;;;39.42;24.28;97145.41;110213;1245;59740;-77
2022/08/06 10:15:05;;;;;;;13.10;12.00;;;;;;;39.74;24.03;97147.25;110264;1247;59738;-77
2022/08/06 10:17:36;;;;;;;17.90;16.20;;;;;;;39.69;23.64;97143.40;110237;1247;70579;-77
2022/08/06 10:20:19;;;;;;;6.80;6.20;;;;;;;39.88;23.60;97139.52;110327;1247;69200;-76
2022/08/06 10:22:57;;;;;;;9.50;8.80;;;;;;;39.87;23.66;97141.11;110286;1246;69841;-76
2022/08/06 10:25:29;;;;;;;10.10;9.30;;;;;;;40.43;22.79;97140.48;110288;1246;60148;-77
2022/08/06 10:28:13;;;;;;;8.40;7.70;;;;;;;40.37;22.56;97143.27;110108;1247;59677;-74
2022/08/06 10:30:43;;;;;;;5.80;5.30;;;;;;;40.35;22.36;97144.89;110314;1247;71397;-77
2022/08/06 10:33:13;;;;;;;5.40;4.70;;;;;;;39.94;21.50;97145.98;110507;1246;69217;-77
2022/08/06 10:35:59;;;;;;;4.50;4.10;;;;;;;40.01;21.68;97141.07;110392;1246;68449;-76
2022/08/06 10:38:39;;;;;;;5.10;4.70;;;;;;;40.77;21.07;97141.98;110332;1247;59743;-75
2022/08/06 10:41:22;;;;;;;5.10;4.70;;;;;;;41.22;20.60;97140.23;110400;1245;59641;-76
2022/08/06 10:44:12;;;;;;;5.30;4.80;;;;;;;41.07;20.04;97144.16;110489;1244;71370;-75
2022/08/06 10:46:44;;;;;;;5.30;4.80;;;;;;;40.18;20.26;97139.60;110470;1245;69972;-77
2022/08/06 10:49:14;;;;;;;5.30;4.90;;;;;;;40.13;20.50;97139.82;110391;1246;69901;-74
2022/08/06 10:52:03;;;;;;;5.20;4.70;;;;;;;39.60;20.49;97137.02;110489;1244;59745;-75
2022/08/06 10:54:33;;;;;;;6.50;5.80;;;;;;;40.03;20.80;97137.83;110480;1244;59154;-76
2022/08/06 10:57:03;;;;;;;6.10;5.40;;;;;;;40.05;21.99;97128.88;110073;1247;71556;-74
2022/08/06 10:59:34;;;;;;;5.40;4.90;;;;;;;40.30;22.33;97124.55;110411;1244;69437;-74
2022/08/06 11:02:27;;;;;;;6.30;5.70;;;;;;;40.28;22.14;97126.09;110309;1247;69229;-75
2022/08/06 11:05:00;;;;;;;6.40;5.80;;;;;;;40.19;22.11;97125.50;110303;1246;59670;-74
2022/08/06 11:08:06;;;;;;;8.50;5.70;;;;;;;40.42;21.19;97126.02;110163;1246;59705;-75
2022/08/06 11:11:17;;;;;;;4.90;4.50;;;;;;;40.14;21.58;97122.35;110529;1246;71359;-75
2022/08/06 11:14:04;;;;;;;5.60;5.10;;;;;;;40.58;20.57;97124.20;110363;1246;69671;-75
2022/08/06 11:17:06;;;;;;;8.10;7.40;;;;;;;39.85;19.60;97123.11;110377;1244;69351;-75
2022/08/06 11:19:44;;;;;;;7.90;7.20;;;;;;;40.27;19.58;97119.91;110216;1247;59726;-73
2022/08/06 11:22:32;;;;;;;5.50;5.00;;;;;;;40.36;20.75;97117.40;110175;1246;59711;-76
2022/08/06 11:25:04;;;;;;;8.10;7.40;;;;;;;40.79;21.11;97114.86;110426;1244;69605;-74
2022/08/06 11:27:57;;;;;;;13.70;12.60;;;;;;;40.80;20.59;97114.70;110516;1244;69186;-74
2022/08/06 11:30:38;;;;;;;8.40;7.70;;;;;;;40.35;21.21;97107.40;110465;1244;69281;-74
2022/08/06 11:33:10;;;;;;;10.80;9.90;;;;;;;40.72;20.62;97109.02;110408;1244;59755;-73
2022/08/06 11:35:43;;;;;;;24.10;22.00;;;;;;;40.91;20.70;97111.64;110464;1247;59755;-73
2022/08/06 11:38:48;;;;;;;11.50;10.60;;;;;;;40.92;20.90;97110.20;110441;1244;69592;-74
2022/08/06 11:41:30;;;;;;;5.20;4.80;;;;;;;40.45;20.88;97110.70;110249;1246;69694;-72
2022/08/06 11:44:22;;;;;;;7.90;7.20;;;;;;;39.88;21.74;97112.73;110255;1246;68428;-75
2022/08/06 11:47:06;;;;;;;6.80;6.00;;;;;;;39.76;21.70;97112.95;110323;1245;59764;-75
2022/08/06 11:49:45;;;;;;;5.50;5.00;;;;;;;39.73;21.32;97113.08;110390;1244;59762;-73
2022/08/06 11:52:35;;;;;;;5.30;4.90;;;;;;;39.86;21.57;97110.11;110453;1244;70180;-74
2022/08/06 11:55:11;;;;;;;5.10;4.60;;;;;;;39.51;21.40;97112.00;110456;1245;69182;-75
2022/08/06 11:58:14;;;;;;;5.10;4.70;;;;;;;39.17;21.69;97112.70;110362;1245;69483;-77
2022/08/06 12:00:59;;;;;;;5.60;5.10;;;;;;;38.82;22.13;97106.06;110281;1245;59760;-73
2022/08/06 12:03:48;;;;;;;5.20;4.70;;;;;;;38.66;22.06;97103.25;110495;1245;59676;-74
2022/08/06 12:06:23;;;;;;;5.10;4.70;;;;;;;38.43;23.39;97103.14;110374;1245;72056;-74
2022/08/06 12:09:09;;;;;;;5.10;4.60;;;;;;;38.53;22.87;97094.30;110477;1244;69625;-72
2022/08/06 12:11:51;;;;;;;4.90;4.40;;;;;;;38.51;22.30;97088.76;110269;1247;68728;-76
2022/08/06 12:14:48;;;;;;;5.00;4.50;;;;;;;38.00;22.75;97091.91;110161;1247;59711;-75
2022/08/06 12:17:24;;;;;;;5.80;5.30;;;;;;;38.29;23.14;97086.66;110800;1246;59611;-75
2022/08/06 12:20:13;;;;;;;5.80;5.30;;;;;;;38.33;24.14;97087.31;111390;1245;70888;-74
2022/08/06 12:23:11;;;;;;;5.00;4.60;;;;;;;38.29;24.21;97079.67;111372;1244;69175;-75
2022/08/06 12:25:45;;;;;;;;;;;;;;;38.42;23.10;97077.29;110667;1246;68495;-74
2022/08/06 12:28:17;;;;;;;5.50;5.00;;;;;;;38.07;23.36;97073.19;110486;1245;59790;-75
2022/08/06 12:30:49;;;;;;;5.20;4.70;;;;;;;37.58;23.99;97077.77;110496;1247;59621;-74
2022/08/06 12:33:22;;;;;;;5.70;5.20;;;;;;;37.22;24.19;97074.00;110530;1245;70795;-77
2022/08/06 12:36:00;;;;;;;5.60;5.10;;;;;;;37.20;24.31;97071.20;110398;1244;69555;-78